Time;durP1;ratioP1;P1;durP2;ratioP2;P2;SDS_P1;SDS_P2;PMS_P1;PMS_P2;Temp;Humidity;BMP_temperature;BMP_pressure;BME280_temperature;BME280_humidity;BME280_pressure;Samples;Min_cycle;Max_cycle;Signal;HPM_P1;HPM_P2
2022/12/29 00:01:45;;;;;;;;;1.67;0.00;;;;;13.51;87.57;-17520.50;4858752;29;45393;-85
2022/12/29 00:04:13;;;;;;;;;0.00;0.00;;;;;13.52;88.12;-15199.59;4862228;29;45500;-85
2022/12/29 00:06:38;;;;;;;;;0.33;0.00;;;;;13.96;88.39;-14781.25;4858482;29;46359;-85
2022/12/29 00:09:04;;;;;;;;;0.00;0.00;;;;;13.88;88.12;-15331.38;4858301;29;45433;-86
2022/12/29 00:11:29;;;;;;;;;0.00;0.00;;;;;13.22;87.60;-17074.94;4855242;29;45391;-86
2022/12/29 00:16:44;;;;;;;;;0.67;0.00;;;;;12.47;87.59;-18069.84;4859622;29;45911;-86
2022/12/29 00:35:59;;;;;;;;;0.33;0.33;;;;;14.03;88.84;-13444.78;4849954;29;45820;-86
2022/12/29 00:44:05;;;;;;;;;2.33;1.00;;;;;13.72;89.97;-8828.59;4849101;29;45505;-85
2022/12/29 00:46:35;;;;;;;;;1.67;0.33;;;;;14.06;90.19;-5522.44;4861277;29;45650;-86
2022/12/29 00:51:46;;;;;;;;;0.00;0.00;;;;;14.05;91.15;-2518.44;4861200;29;45387;-86
2022/12/29 00:54:12;;;;;;;;;0.00;0.00;;;;;13.60;91.00;-2563.25;4843081;29;45371;-86
2022/12/29 00:56:37;;;;;;;;;0.00;0.00;;;;;13.98;91.54;-361.56;4851911;29;45469;-86
2022/12/29 00:59:08;;;;;;;;;0.00;0.00;;;;;12.73;91.56;10.81;4861839;29;45860;-85
2022/12/29 01:01:34;;;;;;;;;0.00;0.00;;;;;13.13;91.58;328.50;4857666;29;46802;-85
2022/12/29 01:04:00;;;;;;;;;0.00;0.00;;;;;13.05;90.90;-2420.41;4844797;29;45474;-85
2022/12/29 01:06:25;;;;;;;;;0.67;0.00;;;;;13.93;90.61;-4394.97;4829265;29;45496;-85
2022/12/29 01:10:09;;;;;;;;;0.00;0.00;;;;;13.91;90.97;-4201.88;4856742;29;45758;-85
2022/12/29 01:11:38;;;;;;;;;0.00;0.00;;;;;13.92;90.38;-3633.03;4861277;29;45413;-85
2022/12/29 01:14:04;;;;;;;;;0.33;0.00;;;;;13.91;90.86;-5365.38;4845663;29;45416;-85
2022/12/29 01:16:29;;;;;;;;;0.67;0.00;;;;;13.89;90.18;-5863.47;4842110;29;45654;-86
2022/12/29 01:18:55;;;;;;;;;0.00;0.00;;;;;13.22;90.11;-4682.84;4838512;29;47004;-86
2022/12/29 01:21:20;;;;;;;;;0.00;0.00;;;;;13.02;90.71;-4315.00;4861578;29;45607;-86
2022/12/29 01:23:45;;;;;;;;;0.00;0.00;;;;;12.80;90.23;-6165.91;4848004;29;45450;-86
2022/12/29 01:26:12;;;;;;;;;0.00;0.00;;;;;13.37;90.06;-5837.72;4856154;29;46539;-86
2022/12/29 01:28:41;;;;;;;;;0.00;0.00;;;;;13.04;90.78;-3830.41;4860090;29;46954;-86
2022/12/29 01:31:08;;;;;;;;;1.00;0.00;;;;;13.06;90.47;-5031.53;4861514;29;45284;-86
2022/12/29 01:33:33;;;;;;;;;1.00;0.00;;;;;13.26;90.36;-6006.63;4864475;29;45707;-84
2022/12/29 01:36:08;;;;;;;;;0.00;0.00;;;;;13.19;90.73;-4859.94;4860225;29;45462;-84
2022/12/29 01:38:35;;;;;;;;;0.67;0.00;;;;;14.01;90.21;-4337.72;4844041;29;46462;-84
2022/12/29 01:41:01;;;;;;;;;0.00;0.00;;;;;13.81;90.22;-5539.72;4845987;29;45461;-85
2022/12/29 01:43:44;;;;;;;;;0.00;0.00;;;;;14.00;90.41;-5323.94;4863801;29;45541;-86
2022/12/29 01:46:25;;;;;;;;;0.00;0.00;;;;;13.74;90.08;-6751.78;4852890;29;45499;-86
2022/12/29 01:49:13;;;;;;;;;0.00;0.00;;;;;14.03;90.29;-5864.06;4863818;29;46584;-85
2022/12/29 01:51:43;;;;;;;;;0.00;0.00;;;;;13.29;89.59;-9048.56;4863235;29;45458;-86
2022/12/29 01:54:19;;;;;;;;;0.00;0.00;;;;;13.16;88.95;-12972.88;4863309;29;45497;-85
2022/12/29 01:56:45;;;;;;;;;0.00;0.00;;;;;13.96;88.52;-14286.81;4841563;29;45589;-84
2022/12/29 01:59:17;;;;;;;;;0.00;0.00;;;;;13.94;88.39;-15309.25;4846903;29;46989;-84
2022/12/29 02:01:44;;;;;;;;;0.00;0.00;;;;;13.93;88.16;-17043.88;4863447;29;45417;-84
2022/12/29 02:04:12;;;;;;;;;0.00;0.00;;;;;13.90;88.10;-16791.06;4847672;29;45537;-84
2022/12/29 02:06:45;;;;;;;;;0.00;0.00;;;;;13.21;87.70;-19056.09;4864341;29;45328;-84
2022/12/29 02:09:10;;;;;;;;;0.00;0.00;;;;;13.86;87.09;-19581.31;4860366;29;45582;-84
2022/12/29 02:11:37;;;;;;;;;0.00;0.00;;;;;13.12;86.77;-19561.69;4865816;29;45440;-84
2022/12/29 02:14:08;;;;;;;;;0.67;0.00;;;;;13.86;86.81;-19581.31;4864941;29;45494;-84
2022/12/29 02:17:19;;;;;;;;;0.67;0.00;;;;;13.20;85.88;-19563.84;4856474;29;45609;-84
2022/12/29 02:20:04;;;;;;;;;0.00;0.00;;;;;13.82;86.10;-19580.25;4803017;29;45390;-84
2022/12/29 02:22:59;;;;;;;;;0.00;0.00;;;;;13.51;86.12;-19572.19;4805974;29;45349;-84
2022/12/29 02:25:49;;;;;;;;;0.00;0.00;;;;;13.79;85.95;-19579.31;4797191;29;45529;-84
2022/12/29 02:28:36;;;;;;;;;0.33;0.00;;;;;13.18;85.64;-19563.31;4806026;29;45631;-85
2022/12/29 02:31:39;;;;;;;;;0.00;0.00;;;;;13.60;84.84;-19574.34;4789850;29;46428;-84
2022/12/29 02:34:07;;;;;;;;;0.00;0.00;;;;;13.64;85.20;-19575.41;4800823;29;45412;-85
2022/12/29 02:36:57;;;;;;;;;0.00;0.00;;;;;13.61;85.51;-19574.59;4803652;29;45416;-84
2022/12/29 02:39:43;;;;;;;;;0.67;0.00;;;;;13.35;84.60;-19567.88;4800362;29;45391;-85
2022/12/29 02:42:37;;;;;;;;;0.00;0.00;;;;;13.63;85.36;-19575.16;4801146;29;46916;-85
2022/12/29 02:45:13;;;;;;;;;0.00;0.00;;;;;13.63;84.84;-19575.28;4798644;29;45618;-85
2022/12/29 02:48:22;;;;;;;;;0.00;0.00;;;;;13.52;85.08;-19572.31;4804956;29;45436;-85
2022/12/29 02:50:56;;;;;;;;;0.00;0.00;;;;;13.36;84.73;-19568.00;4728629;29;45486;-86
2022/12/29 02:54:40;;;;;;;;;0.00;0.00;;;;;13.47;84.81;-19571.09;4723075;29;45434;-86
2022/12/29 02:56:09;;;;;;;;;0.00;0.00;;;;;13.36;84.73;-19568.16;4758741;29;45449;-86
2022/12/29 02:58:34;;;;;;;;;0.00;0.00;;;;;12.92;84.90;-19556.56;4765823;29;45461;-85
2022/12/29 03:01:11;;;;;;;;;0.00;0.00;;;;;13.56;84.43;-19573.41;4750591;29;45639;-85
2022/12/29 03:03:56;;;;;;;;;0.00;0.00;;;;;13.53;84.85;-19572.59;4768794;29;46248;-85
2022/12/29 03:06:41;;;;;;;;;0.00;0.00;;;;;13.16;84.51;-19562.75;4768907;29;45456;-85
2022/12/29 03:09:19;;;;;;;;;1.67;0.00;;;;;12.86;84.99;-19554.97;4767080;29;45562;-85
2022/12/29 03:12:08;;;;;;;;;0.00;0.00;;;;;13.56;84.93;-19573.41;4769187;29;45464;-85
2022/12/29 03:17:51;;;;;;;;;0.00;0.00;;;;;13.54;84.39;-19572.84;4767749;29;45554;-85
2022/12/29 03:20:26;;;;;;;;;0.33;0.00;;;;;13.36;84.04;-19568.00;4769403;29;45516;-85
2022/12/29 03:23:00;;;;;;;;;1.00;0.00;;;;;12.99;84.10;-19558.31;4861016;29;45493;-86
2022/12/29 03:25:29;;;;;;;;;1.67;0.00;;;;;13.47;83.61;-19571.09;4862510;29;45763;-86
2022/12/29 03:28:00;;;;;;;;;0.33;0.00;;;;;13.42;83.88;-19569.75;4851216;29;45623;-86
2022/12/29 03:30:28;;;;;;;;;0.00;0.00;;;;;12.70;83.39;-19550.78;4858169;29;45499;-85
2022/12/29 03:32:58;;;;;;;;;2.33;0.00;;;;;13.38;83.47;-19568.56;4856185;29;45519;-85
2022/12/29 03:35:27;;;;;;;;;0.00;0.00;;;;;13.29;83.47;-19566.25;4855952;29;46723;-86
2022/12/29 03:38:02;;;;;;;;;0.00;0.00;;;;;13.33;83.33;-19567.34;4856607;29;45317;-86
2022/12/29 03:40:29;;;;;;;;;0.33;0.00;;;;;12.75;82.94;-19552.13;4853414;29;45364;-86
2022/12/29 03:42:55;;;;;;;;;0.00;0.00;;;;;13.36;82.89;-19568.00;4861629;29;45588;-85
2022/12/29 03:45:21;;;;;;;;;0.00;0.00;;;;;12.79;82.98;-19553.09;4844864;29;47709;-85
2022/12/29 03:47:46;;;;;;;;;2.00;0.00;;;;;12.97;82.50;-19557.94;4853812;29;45423;-85
2022/12/29 03:50:13;;;;;;;;;0.00;0.00;;;;;13.20;82.14;-19563.84;4859161;29;45500;-85
2022/12/29 03:52:38;;;;;;;;;0.00;0.00;;;;;13.22;81.72;-19564.50;4861648;29;45412;-84
2022/12/29 03:55:04;;;;;;;;;0.00;0.00;;;;;12.86;82.33;-19555.09;4858717;29;46009;-83
2022/12/29 03:57:29;;;;;;;;;0.00;0.00;;;;;13.08;82.07;-19560.88;4854532;29;45498;-85
2022/12/29 03:59:55;;;;;;;;;0.67;0.00;;;;;13.24;81.82;-19565.06;4835607;29;45338;-84
2022/12/29 04:02:20;;;;;;;;;0.00;0.00;;;;;12.76;81.97;-19552.28;4856336;29;45873;-84
2022/12/29 04:04:46;;;;;;;;;0.00;0.00;;;;;13.23;82.39;-19564.66;4858234;29;46490;-85
2022/12/29 04:07:11;;;;;;;;;0.00;0.00;;;;;12.80;82.18;-19553.47;4853817;29;45552;-85
2022/12/29 04:09:37;;;;;;;;;0.00;0.00;;;;;12.33;81.89;-19540.97;4856695;29;45703;-86
2022/12/29 04:12:02;;;;;;;;;0.00;0.00;;;;;12.25;81.81;-19538.94;4849232;29;45545;-85
2022/12/29 04:14:27;;;;;;;;;0.00;0.00;;;;;12.53;82.15;-19546.22;4859892;29;46534;-86
2022/12/29 04:16:53;;;;;;;;;0.00;0.00;;;;;11.86;82.06;-19528.56;4843006;29;45462;-86
2022/12/29 04:19:18;;;;;;;;;0.00;0.00;;;;;11.93;81.92;-19530.47;4861623;29;45443;-86
2022/12/29 04:21:44;;;;;;;;;0.00;0.00;;;;;13.18;82.26;-19563.31;4857846;29;45483;-87
2022/12/29 04:24:09;;;;;;;;;0.33;0.33;;;;;11.49;81.93;-19519.00;4846679;29;48178;-88
2022/12/29 04:26:34;;;;;;;;;0.00;0.00;;;;;12.44;81.84;-19544.06;4863041;29;45383;-87
2022/12/29 04:29:00;;;;;;;;;0.00;0.00;;;;;12.72;82.27;-19551.34;4854897;29;45358;-87
2022/12/29 04:31:25;;;;;;;;;0.00;0.00;;;;;12.33;82.54;-19541.09;4854368;29;45375;-87
2022/12/29 04:33:51;;;;;;;;;0.00;0.00;;;;;11.90;82.08;-19529.66;4838297;29;46084;-86
2022/12/29 04:36:16;;;;;;;;;0.33;0.33;;;;;12.85;82.11;-19554.69;4860400;29;45460;-86
2022/12/29 04:38:41;;;;;;;;;0.00;0.00;;;;;11.72;82.11;-19525.06;4852617;29;45491;-87
2022/12/29 04:41:07;;;;;;;;;0.00;0.00;;;;;12.08;82.03;-19534.50;4862128;29;45437;-87
2022/12/29 04:43:32;;;;;;;;;0.00;0.00;;;;;12.93;82.33;-19556.84;4861640;29;45876;-86
2022/12/29 04:45:57;;;;;;;;;0.00;0.00;;;;;12.75;82.39;-19552.13;4859678;29;45507;-85
2022/12/29 04:48:23;;;;;;;;;0.00;0.00;;;;;13.22;82.03;-19564.50;4858470;29;45480;-86
2022/12/29 04:50:49;;;;;;;;;0.33;0.00;;;;;12.57;81.95;-19547.28;4861804;29;45491;-86
2022/12/29 04:53:15;;;;;;;;;0.00;0.00;;;;;12.93;81.92;-19556.84;4844709;29;48171;-86
2022/12/29 04:55:40;;;;;;;;;0.00;0.00;;;;;12.59;81.57;-19547.84;4859494;29;45433;-86
2022/12/29 04:58:06;;;;;;;;;0.00;0.00;;;;;12.95;81.58;-19557.38;4847587;29;45432;-86
2022/12/29 05:00:31;;;;;;;;;0.00;0.00;;;;;13.34;81.00;-19567.47;4857406;29;45602;-86
2022/12/29 05:02:57;;;;;;;;;0.00;0.00;;;;;13.33;80.88;-19567.34;4864213;29;45818;-86
2022/12/29 05:05:22;;;;;;;;;0.00;0.00;;;;;13.36;80.85;-19568.16;4864636;29;45681;-86
2022/12/29 05:07:48;;;;;;;;;0.00;0.00;;;;;12.99;80.83;-19558.47;4857143;29;45509;-86
2022/12/29 05:10:13;;;;;;;;;0.00;0.00;;;;;13.10;80.89;-19561.41;4850943;29;45387;-86
2022/12/29 05:12:39;;;;;;;;;0.00;0.00;;;;;13.43;80.35;-19570.03;4853044;29;46462;-86
2022/12/29 05:15:07;;;;;;;;;0.00;0.00;;;;;13.04;79.70;-19559.81;4863994;29;45429;-86
2022/12/29 05:17:33;;;;;;;;;0.00;0.00;;;;;12.66;79.32;-19549.84;4846918;29;45441;-85
2022/12/29 05:19:58;;;;;;;;;0.00;0.00;;;;;13.37;79.69;-19568.41;4859701;29;45470;-85
2022/12/29 05:22:24;;;;;;;;;0.00;0.00;;;;;13.37;79.61;-19568.41;4842293;29;47424;-85
2022/12/29 05:24:50;;;;;;;;;0.00;0.00;;;;;12.56;79.65;-19547.16;4856288;29;45530;-89
2022/12/29 05:27:15;;;;;;;;;0.33;0.33;;;;;12.73;79.59;-19551.47;4854604;29;45946;-86
2022/12/29 05:29:40;;;;;;;;;0.00;0.00;;;;;13.33;79.36;-19567.34;4863601;29;45379;-85
2022/12/29 05:32:06;;;;;;;;;2.67;0.67;;;;;12.76;78.89;-19552.28;4863804;29;46611;-89
2022/12/29 05:34:31;;;;;;;;;2.67;1.33;;;;;12.36;79.48;-19541.91;4844359;29;45811;-89
2022/12/29 05:36:57;;;;;;;;;0.67;0.67;;;;;12.82;79.59;-19553.88;4841890;29;45473;-87
2022/12/29 05:39:22;;;;;;;;;0.00;0.00;;;;;12.88;79.27;-19555.63;4860913;29;45418;-87
2022/12/29 05:41:48;;;;;;;;;0.67;0.00;;;;;13.17;78.95;-19563.03;4857869;29;45655;-86
2022/12/29 05:44:13;;;;;;;;;0.33;0.33;;;;;13.03;78.69;-19559.53;4851996;29;45487;-87
2022/12/29 05:46:39;;;;;;;;;3.67;2.33;;;;;11.90;78.43;-19529.66;4859134;29;45572;-84
2022/12/29 05:49:05;;;;;;;;;3.67;1.67;;;;;13.21;78.22;-19564.25;4847505;29;45460;-84
2022/12/29 05:51:31;;;;;;;;;1.67;0.67;;;;;12.13;78.03;-19535.72;4858380;29;46214;-84
2022/12/29 05:53:59;;;;;;;;;3.00;1.00;;;;;12.29;78.31;-19539.88;4856754;29;46444;-93
2022/12/29 05:56:24;;;;;;;;;1.33;1.00;;;;;12.84;78.47;-19554.56;4871181;29;45555;-86
2022/12/29 05:58:50;;;;;;;;;3.00;3.00;;;;;11.61;77.69;-19522.25;4867136;29;45485;-85
2022/12/29 06:01:15;;;;;;;;;5.67;5.67;;;;;12.42;77.76;-19543.38;4863219;29;46360;-89
2022/12/29 06:03:40;;;;;;;;;1.33;1.33;;;;;12.59;77.94;-19547.84;4860541;29;45521;-88
2022/12/29 06:06:06;;;;;;;;;1.33;1.33;;;;;12.11;77.29;-19535.31;4845827;29;45640;-88
2022/12/29 06:08:31;;;;;;;;;9.33;9.33;;;;;12.66;77.31;-19549.84;4846268;29;45501;-88
2022/12/29 06:10:56;;;;;;;;;11.33;10.67;;;;;12.66;77.05;-19549.72;4846163;29;48169;-89
2022/12/29 06:13:22;;;;;;;;;13.33;13.33;;;;;11.88;76.53;-19529.25;4858978;29;45424;-90
2022/12/29 06:15:51;;;;;;;;;13.67;12.67;;;;;13.14;76.98;-19562.38;4853136;29;45477;-90
2022/12/29 06:18:16;;;;;;;;;16.33;16.33;;;;;11.62;76.63;-19522.38;4850638;29;45498;-90
2022/12/29 06:20:42;;;;;;;;;7.33;7.33;;;;;11.60;76.81;-19521.84;4844390;29;47824;-89
2022/12/29 06:23:07;;;;;;;;;23.00;21.25;;;;;13.13;76.78;-19561.97;4841349;29;45317;-88
2022/12/29 06:25:33;;;;;;;;;20.00;20.00;;;;;11.82;76.61;-19527.75;4863781;29;45623;-87
2022/12/29 06:28:00;;;;;;;;;21.50;19.25;;;;;12.70;76.93;-19550.66;4844264;29;45445;-88
2022/12/29 06:30:25;;;;;;;;;15.67;14.00;;;;;11.94;76.93;-19530.72;4858253;29;46353;-87
2022/12/29 06:32:51;;;;;;;;;21.50;21.50;;;;;11.81;76.60;-19527.50;4862884;29;45432;-87
2022/12/29 06:35:16;;;;;;;;;22.25;22.25;;;;;13.07;76.91;-19560.47;4864793;29;45407;-87
2022/12/29 06:37:43;;;;;;;;;18.25;18.25;;;;;12.80;76.76;-19553.34;4862144;29;45520;-87
2022/12/29 06:40:09;;;;;;;;;20.00;20.00;;;;;11.38;76.48;-19516.03;4845974;29;48195;-87
2022/12/29 06:42:34;;;;;;;;;19.00;17.50;;;;;12.37;76.78;-19542.03;4867655;29;45565;-87
2022/12/29 06:45:00;;;;;;;;;14.00;14.00;;;;;12.17;76.94;-19536.94;4861231;29;45322;-87
2022/12/29 06:47:25;;;;;;;;;16.00;16.00;;;;;12.37;76.96;-19542.03;4842581;29;45467;-85
2022/12/29 06:49:52;;;;;;;;;6.67;6.67;;;;;12.30;77.07;-19540.28;4858464;29;45384;-85
2022/12/29 06:52:17;;;;;;;;;21.25;20.00;;;;;12.95;76.97;-19557.38;4858583;29;45602;-85
2022/12/29 06:54:42;;;;;;;;;16.25;16.25;;;;;12.42;77.02;-19543.38;4859365;29;45944;-84
2022/12/29 06:57:08;;;;;;;;;17.00;16.00;;;;;12.59;76.97;-19547.84;4857019;29;45486;-85
2022/12/29 06:59:33;;;;;;;;;15.00;13.33;;;;;12.75;76.90;-19552.00;4860411;29;45613;-85
2022/12/29 07:01:58;;;;;;;;;22.50;20.75;;;;;11.52;76.46;-19519.69;4852786;29;46174;-84
2022/12/29 07:04:24;;;;;;;;;23.50;23.25;;;;;13.05;76.47;-19560.06;4833399;29;45496;-84
2022/12/29 07:06:49;;;;;;;;;23.00;23.00;;;;;12.15;76.53;-19536.38;4841693;29;45588;-84
2022/12/29 07:09:15;;;;;;;;;20.25;19.75;;;;;13.04;76.57;-19559.66;4855514;29;46953;-84
2022/12/29 07:11:40;;;;;;;;;18.00;18.00;;;;;12.39;76.59;-19542.59;4839129;29;46175;-84
2022/12/29 07:14:05;;;;;;;;;24.25;22.50;;;;;12.80;76.45;-19553.47;4855176;29;45515;-83
2022/12/29 07:16:32;;;;;;;;;35.50;33.25;;;;;12.81;75.89;-19553.75;4862289;29;45485;-84
2022/12/29 07:18:58;;;;;;;;;39.50;35.50;;;;;11.81;75.46;-19527.38;4853102;29;45407;-84
2022/12/29 07:21:24;;;;;;;;;35.00;32.00;;;;;12.75;75.58;-19552.13;4853435;29;45572;-84
2022/12/29 07:23:49;;;;;;;;;36.75;33.75;;;;;12.85;75.82;-19554.84;4856111;29;45419;-84
2022/12/29 07:26:17;;;;;;;;;36.75;33.50;;;;;12.96;75.67;-19557.66;4842378;29;45508;-84
2022/12/29 07:28:43;;;;;;;;;32.00;31.00;;;;;12.99;75.85;-19558.31;4854717;29;45956;-83
2022/12/29 07:31:19;;;;;;;;;34.00;32.25;;;;;12.63;75.53;-19548.91;4860218;29;45474;-83
2022/12/29 07:33:45;;;;;;;;;40.25;35.00;;;;;11.82;75.59;-19527.75;4856374;29;45454;-84
2022/12/29 07:36:12;;;;;;;;;32.25;31.25;;;;;13.01;75.65;-19558.88;4854730;29;45534;-84
2022/12/29 07:38:37;;;;;;;;;29.75;27.75;;;;;11.45;75.47;-19517.94;4854359;29;46487;-84
2022/12/29 07:41:03;;;;;;;;;35.75;33.00;;;;;11.45;75.18;-19517.94;4854838;29;45610;-83
2022/12/29 07:43:28;;;;;;;;;41.25;36.50;;;;;13.04;75.19;-19559.66;4854374;29;45441;-83
2022/12/29 07:45:54;;;;;;;;;32.00;31.00;;;;;13.05;75.43;-19559.94;4861222;29;45314;-83
2022/12/29 07:48:19;;;;;;;;;38.75;35.00;;;;;13.06;75.26;-19560.22;4853988;29;46439;-82
2022/12/29 07:50:45;;;;;;;;;44.00;37.75;;;;;13.06;74.92;-19560.34;4861359;29;45365;-83
2022/12/29 07:53:10;;;;;;;;;56.67;46.67;;;;;11.66;74.89;-19523.47;4857229;29;45472;-84
2022/12/29 07:55:36;;;;;;;;;45.50;39.50;;;;;12.96;74.56;-19557.66;4850917;29;45528;-84
2022/12/29 07:58:01;;;;;;;;;39.75;35.75;;;;;12.99;75.34;-19558.47;4856652;29;45507;-83
2022/12/29 08:00:27;;;;;;;;;49.75;42.50;;;;;12.75;74.96;-19552.00;4853821;29;45443;-84
2022/12/29 08:02:52;;;;;;;;;38.25;32.50;;;;;11.54;75.08;-19520.34;4836135;29;45659;-84
2022/12/29 08:05:17;;;;;;;;;44.75;37.25;;;;;13.04;75.13;-19559.66;4854822;29;45347;-83
2022/12/29 08:07:44;;;;;;;;;37.75;34.00;;;;;12.64;75.21;-19549.31;4846578;29;45485;-84
2022/12/29 08:10:10;;;;;;;;;31.75;31.00;;;;;12.22;74.77;-19538.13;4851235;29;45595;-83
2022/12/29 08:12:35;;;;;;;;;56.00;47.33;;;;;13.06;74.70;-19560.22;4860429;29;45621;-83
2022/12/29 08:15:00;;;;;;;;;53.67;45.00;;;;;13.05;74.96;-19560.06;4851042;29;45631;-84
2022/12/29 08:17:26;;;;;;;;;48.00;41.33;;;;;12.87;74.58;-19555.22;4846155;29;45533;-84
2022/12/29 08:19:51;;;;;;;;;51.25;43.75;;;;;12.20;75.21;-19537.59;4853230;29;45456;-88
2022/12/29 08:22:16;;;;;;;;;55.67;46.67;;;;;12.55;75.02;-19546.75;4843228;29;45616;-87
2022/12/29 08:24:42;;;;;;;;;58.00;47.33;;;;;12.72;74.27;-19551.19;4851246;29;45472;-88
2022/12/29 08:27:07;;;;;;;;;54.00;45.33;;;;;12.84;74.43;-19554.44;4852990;29;45773;-86
2022/12/29 08:29:32;;;;;;;;;49.67;42.33;;;;;12.13;74.26;-19535.72;4857374;29;45542;-87
2022/12/29 08:31:58;;;;;;;;;55.33;46.67;;;;;11.93;74.42;-19530.59;4850983;29;46266;-86
2022/12/29 08:34:23;;;;;;;;;48.00;40.67;;;;;12.61;74.58;-19548.38;4862181;29;45416;-85
2022/12/29 08:36:49;;;;;;;;;54.00;45.67;;;;;13.11;74.59;-19561.56;4854480;29;45440;-86
2022/12/29 08:39:14;;;;;;;;;56.33;45.67;;;;;12.68;74.11;-19550.38;4855658;29;45551;-87
2022/12/29 08:41:39;;;;;;;;;54.33;44.00;;;;;11.79;74.09;-19526.81;4854783;29;45487;-87
2022/12/29 08:44:05;;;;;;;;;57.00;47.33;;;;;12.77;74.50;-19552.53;4855874;29;45473;-86
2022/12/29 08:46:30;;;;;;;;;39.50;35.25;;;;;12.78;73.90;-19552.94;4851515;29;45936;-87
2022/12/29 08:48:56;;;;;;;;;53.33;44.67;;;;;11.92;73.81;-19530.19;4854971;29;45604;-85
2022/12/29 08:51:21;;;;;;;;;43.50;38.00;;;;;13.25;73.79;-19565.19;4850845;29;45358;-84
2022/12/29 08:53:47;;;;;;;;;46.00;39.00;;;;;11.59;73.47;-19521.56;4854567;29;45682;-85
2022/12/29 08:56:12;;;;;;;;;43.25;37.00;;;;;13.22;73.66;-19564.38;4850343;29;47244;-86
2022/12/29 08:58:38;;;;;;;;;34.00;31.75;;;;;12.96;73.61;-19557.66;4852441;29;45335;-85
2022/12/29 09:01:03;;;;;;;;;50.50;43.00;;;;;12.62;72.88;-19548.63;4850160;29;46304;-86
2022/12/29 09:03:28;;;;;;;;;48.50;41.50;;;;;13.35;72.58;-19567.88;4858486;29;45549;-86
2022/12/29 09:05:54;;;;;;;;;49.00;41.50;;;;;12.82;73.20;-19553.88;4852630;29;45728;-86
2022/12/29 09:08:20;;;;;;;;;37.50;34.00;;;;;12.50;73.05;-19545.53;4834637;29;45617;-86
2022/12/29 09:10:46;;;;;;;;;50.00;42.50;;;;;12.72;73.02;-19551.19;4852516;29;45534;-86
2022/12/29 09:13:13;;;;;;;;;43.00;35.00;;;;;13.51;72.90;-19572.19;4851476;29;45458;-86
2022/12/29 09:15:38;;;;;;;;;45.50;39.00;;;;;13.57;72.70;-19573.66;4858873;29;45542;-85
2022/12/29 09:18:05;;;;;;;;;45.25;39.00;;;;;13.61;72.79;-19574.59;4850076;29;45660;-87
2022/12/29 09:20:30;;;;;;;;;34.25;31.75;;;;;13.64;72.40;-19575.41;4860285;29;45296;-85
2022/12/29 09:22:56;;;;;;;;;49.50;42.50;;;;;13.33;72.58;-19567.34;4856306;29;45378;-87
2022/12/29 09:25:24;;;;;;;;;13.75;13.75;;;;;13.37;72.22;-19568.41;4859391;29;45374;-86
2022/12/29 09:27:52;;;;;;;;;14.75;12.25;;;;;12.84;72.04;-19554.44;4846167;29;46126;-88
2022/12/29 09:30:19;;;;;;;;;14.67;13.00;;;;;12.28;71.88;-19539.75;4842846;29;45507;-87
2022/12/29 09:32:44;;;;;;;;;11.00;10.33;;;;;13.59;71.38;-19574.06;4848867;29;45809;-87
2022/12/29 09:35:09;;;;;;;;;13.00;10.00;;;;;13.61;71.95;-19574.75;4851139;29;45549;-87
2022/12/29 09:37:35;;;;;;;;;8.67;7.33;;;;;13.63;72.13;-19575.28;4845627;29;45421;-87
2022/12/29 09:40:00;;;;;;;;;13.25;11.50;;;;;13.35;72.07;-19567.88;4851842;29;45562;-87
2022/12/29 09:42:45;;;;;;;;;6.33;5.00;;;;;13.08;71.70;-19560.88;4846738;29;45555;-86
2022/12/29 09:45:26;;;;;;;;;8.00;7.33;;;;;12.92;71.60;-19556.44;4860999;29;45542;-88
2022/12/29 09:47:52;;;;;;;;;11.67;10.67;;;;;13.38;71.60;-19568.69;4858211;29;45364;-85
2022/12/29 09:50:38;;;;;;;;;8.00;6.00;;;;;13.84;71.47;-19580.78;4858047;29;45560;-85
2022/12/29 09:53:22;;;;;;;;;3.67;3.67;;;;;13.90;71.07;-19582.41;4852251;29;45708;-85
2022/12/29 09:55:53;;;;;;;;;6.00;3.00;;;;;13.33;70.50;-19567.22;4854323;29;45547;-86
2022/12/29 09:58:22;;;;;;;;;2.00;2.00;;;;;13.31;70.30;-19566.81;4843458;29;45410;-89
2022/12/29 10:00:57;;;;;;;;;7.67;2.00;;;;;12.81;70.42;-19553.63;4874999;29;45520;-85
2022/12/29 10:03:26;;;;;;;;;5.33;3.67;;;;;13.66;70.20;-19575.94;4857799;29;45689;-84
2022/12/29 10:06:03;;;;;;;;;4.67;2.00;;;;;13.93;69.54;-19583.06;4854711;29;45513;-84
2022/12/29 10:08:42;;;;;;;;;1.67;1.67;;;;;13.81;69.61;-19579.97;4855889;29;45488;-84
2022/12/29 10:11:24;;;;;;;;;1.67;1.67;;;;;13.97;69.13;-19584.16;4858687;29;45501;-85
2022/12/29 10:14:13;;;;;;;;;3.33;0.67;;;;;13.65;69.68;-19575.69;4844483;29;45702;-85
2022/12/29 10:16:48;;;;;;;;;3.67;2.67;;;;;13.91;69.29;-19582.66;4855668;29;45510;-85
2022/12/29 10:19:21;;;;;;;;;3.00;1.00;;;;;12.91;68.95;-19556.31;4857196;29;45505;-86
2022/12/29 10:22:14;;;;;;;;;0.67;0.67;;;;;13.94;69.50;-19583.34;4856293;29;45516;-85
2022/12/29 10:24:40;;;;;;;;;6.33;2.00;;;;;13.41;69.30;-19569.50;4857339;29;45490;-87
2022/12/29 10:27:12;;;;;;;;;4.33;1.00;;;;;13.72;68.68;-19577.69;4858186;29;45792;-87
2022/12/29 10:29:45;;;;;;;;;3.33;0.67;;;;;13.08;69.13;-19560.75;4857364;29;45527;-89
2022/12/29 10:32:37;;;;;;;;;1.67;1.67;;;;;13.91;69.24;-19582.66;4833270;29;45491;-86
2022/12/29 10:35:18;;;;;;;;;4.00;3.33;;;;;13.22;69.01;-19564.50;4856571;29;45539;-87
2022/12/29 10:37:53;;;;;;;;;2.33;2.33;;;;;13.51;69.26;-19572.06;4838028;29;47718;-85
2022/12/29 10:40:31;;;;;;;;;5.67;1.67;;;;;13.79;69.13;-19579.31;4836434;29;45313;-86
2022/12/29 10:42:58;;;;;;;;;2.00;2.00;;;;;13.77;69.33;-19578.78;4839074;29;45931;-85
2022/12/29 10:45:29;;;;;;;;;2.00;0.67;;;;;13.75;69.20;-19578.38;4854765;29;46175;-86
2022/12/29 10:47:57;;;;;;;;;2.67;1.67;;;;;13.79;68.90;-19579.31;4836597;29;47342;-85
2022/12/29 10:50:25;;;;;;;;;1.67;1.67;;;;;13.82;68.24;-19580.13;4856991;29;45500;-85
2022/12/29 10:52:51;;;;;;;;;2.67;1.33;;;;;12.77;68.55;-19552.69;4844307;29;45557;-86
2022/12/29 10:55:22;;;;;;;;;5.67;2.67;;;;;13.92;68.38;-19582.94;4851840;29;45508;-85
2022/12/29 10:57:49;;;;;;;;;7.67;4.67;;;;;12.65;67.88;-19549.44;4862876;29;45883;-85
2022/12/29 11:00:16;;;;;;;;;2.67;2.67;;;;;13.96;67.91;-19583.88;4857751;29;45516;-85
2022/12/29 11:03:04;;;;;;;;;3.33;3.33;;;;;13.66;67.80;-19575.94;4867466;29;45510;-85
2022/12/29 11:05:52;;;;;;;;;3.33;2.67;;;;;13.98;68.15;-19584.41;4833336;29;45531;-86
2022/12/29 11:08:21;;;;;;;;;10.00;6.67;;;;;14.00;67.46;-19584.94;4842237;29;45590;-86
2022/12/29 11:10:58;;;;;;;;;14.33;14.33;;;;;13.72;67.24;-19577.69;4855369;29;45472;-86
2022/12/29 11:13:29;;;;;;;;;18.00;15.67;;;;;14.05;67.74;-19586.28;4862667;29;45485;-86
2022/12/29 11:15:55;;;;;;;;;18.75;18.50;;;;;14.10;66.96;-19587.63;4835104;29;46061;-88
2022/12/29 11:18:20;;;;;;;;;23.50;23.50;;;;;14.20;67.33;-19590.06;4856658;29;45425;-89
2022/12/29 11:20:47;;;;;;;;;21.75;19.00;;;;;13.71;67.05;-19577.44;4842323;29;46065;-86
2022/12/29 11:23:23;;;;;;;;;27.50;26.25;;;;;14.44;67.02;-19596.38;4837240;29;46710;-87
2022/12/29 11:26:12;;;;;;;;;47.50;42.00;;;;;14.51;66.32;-19598.38;4859056;29;45590;-87
2022/12/29 11:28:39;;;;;;;;;7.00;5.50;;;;;14.03;65.67;-19585.75;4857843;29;45542;-87
2022/12/29 11:31:07;;;;;;;;;8.67;6.67;;;;;14.56;65.43;-19599.59;4850812;29;45534;-86
2022/12/29 11:33:35;;;;;;;;;3.67;3.33;;;;;14.52;65.65;-19598.66;4837562;29;45401;-86
2022/12/29 11:36:14;;;;;;;;;8.00;4.00;;;;;14.66;65.60;-19602.16;4842127;29;45372;-86
2022/12/29 11:38:45;;;;;;;;;4.67;3.67;;;;;14.80;65.11;-19605.91;4856018;29;45456;-87
2022/12/29 11:41:18;;;;;;;;;2.00;2.00;;;;;14.81;65.32;-19606.19;4858624;29;45428;-85
2022/12/29 11:43:44;;;;;;;;;4.33;3.00;;;;;14.18;64.60;-19589.53;4854258;29;45607;-85
2022/12/29 11:46:18;;;;;;;;;3.00;2.00;;;;;13.83;65.18;-19580.50;4843593;29;45525;-84
2022/12/29 11:48:45;;;;;;;;;3.33;2.33;;;;;14.92;64.95;-19609.13;4846119;29;45893;-85
2022/12/29 11:51:11;;;;;;;;;3.33;3.33;;;;;14.57;64.80;-19600.00;4855911;29;45519;-87
2022/12/29 11:53:47;;;;;;;;;3.67;3.00;;;;;14.25;64.50;-19591.41;4857970;29;45349;-86
2022/12/29 11:56:15;;;;;;;;;3.33;3.00;;;;;14.92;63.54;-19609.13;4851762;29;45533;-86
2022/12/29 11:58:41;;;;;;;;;3.67;2.33;;;;;13.84;64.09;-19580.78;4857262;29;45411;-89
2022/12/29 12:01:15;;;;;;;;;4.33;3.33;;;;;14.82;64.06;-19606.31;4846098;29;45402;-87
2022/12/29 12:03:48;;;;;;;;;4.00;3.33;;;;;13.90;63.61;-19582.41;4853761;29;45312;-86